Time;durP1;ratioP1;P1;durP2;ratioP2;P2;SDS_P1;SDS_P2;PMS_P1;PMS_P2;Temp;Humidity;BMP_temperature;BMP_pressure;BME280_temperature;BME280_humidity;BME280_pressure;Samples;Min_cycle;Max_cycle;Signal;HPM_P1;HPM_P2
2022/11/16 00:02:17;;;;;;;5.63;3.27;;;11.70;99.90;;;;;;5083583;28;20207;-81
2022/11/16 00:04:43;;;;;;;3.17;2.87;;;11.70;99.90;;;;;;5084953;28;20209;-81
2022/11/16 00:07:09;;;;;;;3.20;2.80;;;11.70;99.90;;;;;;5082828;28;20167;-81
2022/11/16 00:09:34;;;;;;;3.70;2.90;;;11.70;99.90;;;;;;5083625;28;20182;-81
2022/11/16 00:12:03;;;;;;;5.17;3.00;;;11.70;99.90;;;;;;5085515;28;20269;-82
2022/11/16 00:14:31;;;;;;;4.57;3.00;;;11.70;99.90;;;;;;5084594;28;20187;-81
2022/11/16 00:16:58;;;;;;;5.60;2.97;;;11.70;99.90;;;;;;5084045;28;20183;-82
2022/11/16 00:19:24;;;;;;;3.13;2.60;;;11.70;99.90;;;;;;5083789;28;20202;-80
2022/11/16 00:21:51;;;;;;;3.53;2.77;;;11.70;99.90;;;;;;5084773;28;20187;-81
2022/11/16 00:24:19;;;;;;;4.53;3.20;;;11.70;99.90;;;;;;5082720;28;20170;-82
2022/11/16 00:26:45;;;;;;;6.40;3.37;;;11.70;99.90;;;;;;5083352;28;20171;-82
2022/11/16 00:29:15;;;;;;;5.37;3.53;;;11.70;99.90;;;;;;5083036;28;20182;-81
2022/11/16 00:31:42;;;;;;;5.27;3.20;;;11.70;99.90;;;;;;5081630;28;20221;-81
2022/11/16 00:34:08;;;;;;;5.90;3.10;;;11.70;99.90;;;;;;5082524;28;20209;-81
2022/11/16 00:36:33;;;;;;;6.03;3.43;;;11.70;99.90;;;;;;5078736;28;20182;-82
2022/11/16 00:38:59;;;;;;;4.70;3.77;;;11.70;99.90;;;;;;5081013;28;20206;-82
2022/11/16 00:41:24;;;;;;;3.70;3.00;;;11.70;99.90;;;;;;5082791;28;20199;-81
2022/11/16 00:43:49;;;;;;;3.93;3.30;;;11.70;99.90;;;;;;5082265;28;20205;-82
2022/11/16 00:46:15;;;;;;;4.43;3.23;;;11.70;99.90;;;;;;5081827;28;20262;-81
2022/11/16 00:48:41;;;;;;;4.43;3.00;;;11.70;99.90;;;;;;5077974;28;20179;-81
2022/11/16 00:51:06;;;;;;;3.17;2.80;;;11.70;99.90;;;;;;5080344;28;20225;-81
2022/11/16 00:53:32;;;;;;;5.97;2.90;;;11.70;99.90;;;;;;5080781;28;20179;-80
2022/11/16 00:55:57;;;;;;;3.90;3.07;;;11.70;99.90;;;;;;5083238;28;20269;-80
2022/11/16 00:58:23;;;;;;;4.67;3.33;;;11.70;99.90;;;;;;5082667;28;20340;-82
2022/11/16 01:00:49;;;;;;;6.07;3.40;;;11.70;99.90;;;;;;5082460;28;20179;-81
2022/11/16 01:03:14;;;;;;;4.47;3.20;;;11.70;99.90;;;;;;5083736;28;20683;-81
2022/11/16 01:05:40;;;;;;;4.13;3.00;;;11.70;99.90;;;;;;5082378;28;20208;-81
2022/11/16 01:08:06;;;;;;;7.63;3.10;;;11.70;99.90;;;;;;5083851;28;20224;-83
2022/11/16 01:10:31;;;;;;;4.33;3.07;;;11.70;99.90;;;;;;5080332;28;20217;-81
2022/11/16 01:12:58;;;;;;;4.13;3.40;;;11.70;99.90;;;;;;5080300;28;20233;-82
2022/11/16 01:15:26;;;;;;;5.03;3.60;;;11.70;99.90;;;;;;5081690;28;20616;-81
2022/11/16 01:17:53;;;;;;;4.57;3.63;;;11.70;99.90;;;;;;5080171;28;20211;-81
2022/11/16 01:20:22;;;;;;;5.73;3.07;;;11.70;99.90;;;;;;5084065;28;20669;-83
2022/11/16 01:22:47;;;;;;;5.17;3.70;;;11.70;99.90;;;;;;5084069;28;20194;-82
2022/11/16 01:25:14;;;;;;;6.37;3.77;;;11.60;99.90;;;;;;5081763;28;20242;-82
2022/11/16 01:27:40;;;;;;;6.87;3.50;;;11.70;99.90;;;;;;5082072;28;20179;-81
2022/11/16 01:30:08;;;;;;;6.03;3.77;;;11.60;99.90;;;;;;5081929;28;20169;-81
2022/11/16 01:32:34;;;;;;;5.77;3.60;;;11.60;99.90;;;;;;5082083;28;20214;-82
2022/11/16 01:35:00;;;;;;;4.37;3.37;;;11.70;99.90;;;;;;5080056;28;20686;-82
2022/11/16 01:37:26;;;;;;;8.83;3.73;;;11.70;99.90;;;;;;5080602;28;20179;-83
2022/11/16 01:39:52;;;;;;;6.63;3.67;;;11.70;99.90;;;;;;5083043;28;20329;-82
2022/11/16 01:42:19;;;;;;;4.53;3.40;;;11.70;99.90;;;;;;5083286;28;20210;-83
2022/11/16 01:44:45;;;;;;;3.60;3.30;;;11.60;99.90;;;;;;5080959;28;20175;-83
2022/11/16 01:47:15;;;;;;;6.27;4.03;;;11.60;99.90;;;;;;5084366;28;20174;-83
2022/11/16 01:50:13;;;;;;;6.13;3.67;;;11.70;99.90;;;;;;5083629;28;20183;-83
2022/11/16 01:52:46;;;;;;;5.00;3.90;;;11.70;99.90;;;;;;5084901;28;20222;-83
2022/11/16 01:55:12;;;;;;;4.27;3.77;;;11.70;99.90;;;;;;5085185;28;20170;-82
2022/11/16 01:57:41;;;;;;;5.00;3.80;;;11.60;99.90;;;;;;5082507;28;20182;-82
2022/11/16 02:00:09;;;;;;;6.27;3.67;;;11.70;99.90;;;;;;5083175;28;20171;-84
2022/11/16 02:02:35;;;;;;;3.90;3.57;;;11.70;99.90;;;;;;5083097;28;20598;-83
2022/11/16 02:05:01;;;;;;;4.67;3.47;;;11.70;99.90;;;;;;5084612;28;20216;-83
2022/11/16 02:11:02;;;;;;;6.67;3.50;;;11.60;99.90;;;;;;5087340;28;20162;-83
2022/11/16 02:13:33;;;;;;;4.97;3.67;;;11.60;99.90;;;;;;5087292;28;20574;-82
2022/11/16 02:16:53;;;;;;;7.40;3.90;;;11.60;99.90;;;;;;5087217;28;20179;-83
2022/11/16 02:19:57;;;;;;;5.50;3.60;;;11.60;99.90;;;;;;4989224;28;20560;-83
2022/11/16 02:22:56;;;;;;;4.43;3.60;;;11.60;99.90;;;;;;5086473;28;20212;-83
2022/11/16 02:25:42;;;;;;;6.53;3.87;;;11.60;99.90;;;;;;5086987;28;20167;-83
2022/11/16 02:28:20;;;;;;;3.87;3.40;;;11.60;99.90;;;;;;5087413;28;20166;-83
2022/11/16 02:30:49;;;;;;;4.17;3.23;;;11.60;99.90;;;;;;5087909;28;20170;-83
2022/11/16 02:33:20;;;;;;;7.40;3.90;;;11.60;99.90;;;;;;5095986;28;20210;-81
2022/11/16 02:35:53;;;;;;;4.37;3.60;;;11.60;99.90;;;;;;5096595;28;20229;-81
2022/11/16 02:38:24;;;;;;;8.77;3.67;;;11.60;99.90;;;;;;5079762;28;20206;-82
2022/11/16 02:40:56;;;;;;;4.27;3.83;;;11.60;99.90;;;;;;5077830;28;20151;-81
2022/11/16 02:43:30;;;;;;;4.50;3.57;;;11.60;99.90;;;;;;5075018;28;20166;-82
2022/11/16 02:46:00;;;;;;;7.10;3.30;;;11.60;99.90;;;;;;5080790;28;20272;-83
2022/11/16 02:48:31;;;;;;;4.57;3.47;;;11.60;99.90;;;;;;5081617;28;20175;-83
2022/11/16 02:50:57;;;;;;;6.07;3.47;;;11.50;99.90;;;;;;5075867;28;20535;-81
2022/11/16 02:53:23;;;;;;;4.47;3.40;;;11.50;99.90;;;;;;5074709;28;20182;-81
2022/11/16 02:55:49;;;;;;;4.00;3.47;;;11.50;99.90;;;;;;5075699;28;20220;-81
2022/11/16 02:58:21;;;;;;;4.90;3.83;;;11.50;99.90;;;;;;5076091;28;20207;-83
2022/11/16 03:00:55;;;;;;;5.67;4.00;;;11.50;99.90;;;;;;5080538;28;20163;-82
2022/11/16 03:03:33;;;;;;;8.77;4.50;;;11.60;99.90;;;;;;5073907;28;20171;-81
2022/11/16 03:06:21;;;;;;;5.57;3.93;;;11.50;99.90;;;;;;5075356;28;20180;-82
2022/11/16 03:08:55;;;;;;;3.83;3.43;;;11.50;99.90;;;;;;5074586;28;20173;-82
2022/11/16 03:14:10;;;;;;;4.47;3.80;;;11.50;99.90;;;;;;5079895;28;20182;-82
2022/11/16 03:16:42;;;;;;;6.73;4.37;;;11.50;99.90;;;;;;5088168;28;20177;-83
2022/11/16 03:19:13;;;;;;;4.70;4.00;;;11.50;99.90;;;;;;5097151;28;20247;-80
2022/11/16 03:22:14;;;;;;;4.80;4.10;;;11.50;99.90;;;;;;5096617;28;20300;-82
2022/11/16 03:24:41;;;;;;;6.37;4.73;;;11.50;99.90;;;;;;5055242;28;20234;-82
2022/11/16 03:27:31;;;;;;;5.67;4.20;;;11.50;99.90;;;;;;5096797;28;20181;-83
2022/11/16 03:30:16;;;;;;;5.80;4.00;;;11.50;99.90;;;;;;5096783;28;20190;-84
2022/11/16 03:33:03;;;;;;;5.07;4.23;;;11.50;99.90;;;;;;5090463;28;20211;-83
2022/11/16 03:35:40;;;;;;;5.60;3.97;;;11.50;99.90;;;;;;5088946;28;20189;-83
2022/11/16 03:38:07;;;;;;;5.50;4.03;;;11.50;99.90;;;;;;5088806;28;20222;-83
2022/11/16 03:40:35;;;;;;;5.43;4.50;;;11.50;99.90;;;;;;5089678;28;20194;-84
2022/11/16 03:43:04;;;;;;;6.93;4.03;;;11.50;99.90;;;;;;5090203;28;20563;-84
2022/11/16 03:45:31;;;;;;;8.73;4.27;;;11.50;99.90;;;;;;5089562;28;20179;-83
2022/11/16 03:47:57;;;;;;;5.63;3.60;;;11.50;99.90;;;;;;5088792;28;20175;-83
2022/11/16 03:50:22;;;;;;;5.10;4.30;;;11.50;99.90;;;;;;5091700;28;20190;-84
2022/11/16 03:52:48;;;;;;;5.90;3.67;;;11.50;99.90;;;;;;5092495;28;20256;-84
2022/11/16 03:55:14;;;;;;;5.50;3.90;;;11.50;99.90;;;;;;5092137;28;20178;-84
2022/11/16 03:57:39;;;;;;;4.90;4.07;;;11.50;99.90;;;;;;5092310;28;20196;-84
2022/11/16 04:00:06;;;;;;;4.37;3.80;;;11.50;99.90;;;;;;5093113;28;20186;-84
2022/11/16 04:02:32;;;;;;;7.47;3.73;;;11.50;99.90;;;;;;5092413;28;20193;-84
2022/11/16 04:24:28;;;;;;;5.40;4.37;;;11.50;99.90;;;;;;5089634;28;20158;-84
2022/11/16 04:29:42;;;;;;;6.53;4.97;;;11.50;99.90;;;;;;5089122;28;20265;-84
2022/11/16 04:37:51;;;;;;;5.67;4.33;;;11.50;99.90;;;;;;5089630;28;20162;-83
2022/11/16 04:40:19;;;;;;;13.70;4.90;;;11.40;99.90;;;;;;5088512;28;20195;-84
2022/11/16 04:42:55;;;;;;;7.17;5.13;;;11.40;99.90;;;;;;5087738;28;20199;-83
2022/11/16 04:48:06;;;;;;;8.80;5.83;;;11.40;99.90;;;;;;5089203;28;20175;-84
2022/11/16 04:50:32;;;;;;;9.43;5.37;;;11.40;99.90;;;;;;5089401;28;20175;-83
2022/11/16 04:52:58;;;;;;;6.87;5.33;;;11.40;99.90;;;;;;5088535;28;20195;-84
2022/11/16 04:55:23;;;;;;;8.13;6.17;;;11.40;99.90;;;;;;5087163;28;20179;-83
2022/11/16 04:57:49;;;;;;;7.57;5.63;;;11.40;99.90;;;;;;5088205;28;20196;-84
2022/11/16 05:00:15;;;;;;;9.80;5.87;;;11.40;99.90;;;;;;5087796;28;20167;-84
2022/11/16 05:02:40;;;;;;;7.57;5.17;;;11.40;99.90;;;;;;5088098;28;20704;-82
2022/11/16 05:05:06;;;;;;;7.00;5.47;;;11.40;99.90;;;;;;5087880;28;20246;-84
2022/11/16 05:07:32;;;;;;;8.63;5.50;;;11.40;99.90;;;;;;5088012;28;20524;-84
2022/11/16 05:09:58;;;;;;;5.40;4.90;;;11.40;99.90;;;;;;5088032;28;20652;-84
2022/11/16 05:12:26;;;;;;;5.70;4.37;;;11.40;99.90;;;;;;5086130;28;20206;-83
2022/11/16 05:14:54;;;;;;;7.23;3.87;;;11.40;99.90;;;;;;5087616;28;20171;-84
2022/11/16 05:17:20;;;;;;;5.07;3.70;;;11.40;99.90;;;;;;5086505;28;20179;-84
2022/11/16 05:22:30;;;;;;;4.00;3.20;;;11.40;99.90;;;;;;5070940;28;20219;-82
2022/11/16 05:24:56;;;;;;;5.23;3.23;;;11.40;99.90;;;;;;5077153;28;20574;-82
2022/11/16 05:27:23;;;;;;;5.77;3.40;;;11.40;99.90;;;;;;5075219;28;20206;-83
2022/11/16 05:29:49;;;;;;;5.37;3.53;;;11.40;99.90;;;;;;5075107;28;20535;-82
2022/11/16 05:32:16;;;;;;;4.70;3.77;;;11.30;99.90;;;;;;5101669;22;20229;-79
2022/11/16 05:34:42;;;;;;;4.97;4.13;;;11.40;99.90;;;;;;5065056;28;20219;-78
2022/11/16 05:37:07;;;;;;;6.23;4.43;;;11.40;99.90;;;;;;5065181;28;20170;-77
2022/11/16 05:39:33;;;;;;;6.93;4.90;;;11.40;99.90;;;;;;5064339;28;20657;-78
2022/11/16 05:41:59;;;;;;;5.57;4.40;;;11.40;99.90;;;;;;5063933;28;20603;-76
2022/11/16 05:44:25;;;;;;;6.37;4.60;;;11.40;99.90;;;;;;5053604;28;20173;-78
2022/11/16 05:46:51;;;;;;;5.33;4.20;;;11.30;99.90;;;;;;5048493;28;20186;-78
2022/11/16 05:49:17;;;;;;;5.53;4.07;;;11.30;99.90;;;;;;5042062;28;20183;-77
2022/11/16 05:51:44;;;;;;;6.40;4.80;;;11.40;99.90;;;;;;5036548;28;20571;-76
2022/11/16 05:54:12;;;;;;;7.50;4.33;;;11.30;99.90;;;;;;5049448;28;20269;-76
2022/11/16 05:56:38;;;;;;;5.47;3.80;;;11.30;99.90;;;;;;5034136;28;20182;-77
2022/11/16 05:59:04;;;;;;;6.03;3.83;;;11.40;99.90;;;;;;5033670;28;20665;-76
2022/11/16 06:01:30;;;;;;;6.83;4.03;;;11.30;99.90;;;;;;5049168;28;20179;-76
2022/11/16 06:03:59;;;;;;;6.13;3.83;;;11.30;99.90;;;;;;5049263;28;20587;-76
2022/11/16 06:06:24;;;;;;;4.33;3.40;;;11.40;99.90;;;;;;5034592;28;20191;-78
2022/11/16 06:08:50;;;;;;;4.13;3.30;;;11.30;99.90;;;;;;5048932;28;20544;-76
2022/11/16 06:11:15;;;;;;;4.70;2.80;;;11.30;99.90;;;;;;5033265;28;20172;-75
2022/11/16 06:13:41;;;;;;;4.13;3.00;;;11.30;99.90;;;;;;5033053;28;20180;-76
2022/11/16 06:16:06;;;;;;;3.87;2.63;;;11.30;99.90;;;;;;5033223;28;20588;-76
2022/11/16 06:18:39;;;;;;;5.27;2.70;;;11.30;99.90;;;;;;5033155;28;20368;-76
2022/11/16 06:21:06;;;;;;;4.70;2.60;;;11.20;99.90;;;;;;5033391;28;20184;-76
2022/11/16 06:23:31;;;;;;;5.33;2.50;;;11.20;99.90;;;;;;5048162;28;20699;-76
2022/11/16 06:25:57;;;;;;;3.93;2.53;;;11.20;99.90;;;;;;5048347;28;20271;-76
2022/11/16 06:28:23;;;;;;;6.40;2.67;;;11.10;99.90;;;;;;5033317;28;20191;-76
2022/11/16 06:30:49;;;;;;;4.17;3.00;;;11.10;99.90;;;;;;5033067;28;20184;-76
2022/11/16 06:33:15;;;;;;;4.83;2.93;;;11.00;99.90;;;;;;5032849;28;20207;-77
2022/11/16 06:35:41;;;;;;;5.33;2.60;;;11.00;99.90;;;;;;5048533;28;20179;-76
2022/11/16 06:38:06;;;;;;;4.83;2.67;;;11.00;99.90;;;;;;5048657;28;20208;-76
2022/11/16 06:40:32;;;;;;;3.30;2.40;;;11.00;99.90;;;;;;5032960;28;20279;-76
2022/11/16 06:42:58;;;;;;;3.80;2.60;;;10.90;99.90;;;;;;5032947;28;20180;-76
2022/11/16 06:45:24;;;;;;;5.70;2.80;;;10.90;99.90;;;;;;5032853;28;20179;-76
2022/11/16 06:47:50;;;;;;;4.20;2.90;;;10.90;99.90;;;;;;5033174;28;20164;-76
2022/11/16 06:50:18;;;;;;;6.20;2.80;;;10.80;99.90;;;;;;5032922;28;20168;-76
2022/11/16 06:52:45;;;;;;;4.80;2.90;;;10.80;99.90;;;;;;5032877;28;20180;-76
2022/11/16 06:55:11;;;;;;;3.80;2.53;;;10.80;99.90;;;;;;5032861;28;20206;-76
2022/11/16 06:57:37;;;;;;;4.20;2.70;;;10.70;99.90;;;;;;5032737;28;20176;-76
2022/11/16 07:00:03;;;;;;;4.33;3.00;;;10.70;99.90;;;;;;5033555;28;20197;-77
2022/11/16 07:02:29;;;;;;;7.23;3.47;;;10.70;99.90;;;;;;5033488;28;20258;-78
2022/11/16 07:04:54;;;;;;;3.80;3.00;;;10.70;99.90;;;;;;5033424;28;20697;-78
2022/11/16 07:07:20;;;;;;;6.43;3.03;;;10.70;99.90;;;;;;5033534;28;20168;-76
2022/11/16 07:09:45;;;;;;;8.20;2.70;;;10.70;99.90;;;;;;5033728;28;20258;-76
2022/11/16 07:12:11;;;;;;;3.13;2.73;;;10.70;99.90;;;;;;5033227;28;20214;-78
2022/11/16 07:14:36;;;;;;;6.30;2.70;;;10.70;99.90;;;;;;5033314;28;20651;-76
2022/11/16 07:17:02;;;;;;;3.63;2.80;;;10.70;99.90;;;;;;5032913;28;20176;-75
2022/11/16 07:19:27;;;;;;;10.30;2.30;;;10.80;99.90;;;;;;5032569;28;20283;-76
2022/11/16 07:21:55;;;;;;;5.03;1.90;;;10.80;99.90;;;;;;5032744;28;20203;-76
2022/11/16 07:24:21;;;;;;;3.90;2.37;;;10.80;99.90;;;;;;5033480;28;20176;-76
2022/11/16 07:26:46;;;;;;;6.67;2.60;;;10.80;99.90;;;;;;5036739;28;20176;-76
2022/11/16 07:29:12;;;;;;;4.43;2.30;;;10.80;99.90;;;;;;5036763;28;20642;-76
2022/11/16 07:31:38;;;;;;;7.70;2.23;;;10.80;99.90;;;;;;5036339;28;20239;-76
2022/11/16 07:34:04;;;;;;;5.93;2.10;;;10.80;99.90;;;;;;5036771;28;20160;-75
2022/11/16 07:36:29;;;;;;;5.63;2.67;;;10.70;99.90;;;;;;5035904;28;20226;-76
2022/11/16 07:38:55;;;;;;;3.90;1.97;;;10.70;99.90;;;;;;5035074;28;20207;-76
2022/11/16 07:41:20;;;;;;;3.87;2.00;;;10.60;99.90;;;;;;5036355;28;20251;-76
2022/11/16 07:43:46;;;;;;;9.33;2.10;;;10.60;99.90;;;;;;5036005;28;20169;-76
2022/11/16 07:46:15;;;;;;;6.23;2.03;;;10.60;99.90;;;;;;5035956;28;20168;-76
2022/11/16 07:48:41;;;;;;;7.33;2.13;;;10.60;99.90;;;;;;5036342;28;20173;-78
2022/11/16 07:51:12;;;;;;;5.10;1.97;;;10.50;99.90;;;;;;5036809;28;20168;-77
2022/11/16 07:53:38;;;;;;;4.20;1.93;;;10.50;99.90;;;;;;5051425;28;20704;-76
2022/11/16 07:56:05;;;;;;;6.83;1.90;;;10.50;99.90;;;;;;5051303;28;20182;-76
2022/11/16 07:58:34;;;;;;;5.60;1.77;;;10.40;99.90;;;;;;5034491;28;20295;-76
2022/11/16 08:01:13;;;;;;;5.43;2.03;;;10.40;99.90;;;;;;5036086;28;20211;-76
2022/11/16 08:03:40;;;;;;;6.13;2.10;;;10.40;99.90;;;;;;5035766;28;20199;-76
2022/11/16 08:06:27;;;;;;;1.70;1.30;;;10.30;99.90;;;;;;5051203;28;20168;-76
2022/11/16 08:08:53;;;;;;;4.00;1.70;;;10.30;99.90;;;;;;5035700;28;20161;-76
2022/11/16 08:11:18;;;;;;;6.27;2.10;;;10.30;99.90;;;;;;5050997;28;20183;-76
2022/11/16 08:13:44;;;;;;;7.53;2.00;;;10.30;99.90;;;;;;5035387;28;20180;-76
2022/11/16 08:16:11;;;;;;;7.23;2.83;;;10.30;99.90;;;;;;5035728;28;20698;-76
2022/11/16 08:18:38;;;;;;;7.20;3.57;;;10.30;99.90;;;;;;5035225;28;20199;-76
2022/11/16 08:21:06;;;;;;;8.50;3.50;;;10.20;99.90;;;;;;5035508;28;20164;-76
2022/11/16 08:23:32;;;;;;;3.50;2.43;;;10.20;99.90;;;;;;5052175;28;20191;-75
2022/11/16 08:26:04;;;;;;;4.77;2.50;;;10.20;99.90;;;;;;5049219;28;20171;-77
2022/11/16 08:28:31;;;;;;;7.10;3.60;;;10.20;99.90;;;;;;5049370;28;20241;-76
2022/11/16 08:30:57;;;;;;;8.70;3.43;;;10.20;99.90;;;;;;5055023;28;20179;-75
2022/11/16 08:33:23;;;;;;;4.37;2.63;;;10.20;99.90;;;;;;5054965;28;20296;-75
2022/11/16 08:35:50;;;;;;;6.57;2.67;;;10.20;99.90;;;;;;5055265;28;20176;-75
2022/11/16 08:38:17;;;;;;;4.87;2.47;;;10.20;99.90;;;;;;5053404;28;20199;-76
2022/11/16 08:40:43;;;;;;;6.97;2.53;;;10.20;99.90;;;;;;5054069;28;20168;-75
2022/11/16 08:43:09;;;;;;;5.27;2.60;;;10.20;99.90;;;;;;5053511;28;20602;-76
2022/11/16 08:45:36;;;;;;;7.47;2.70;;;10.20;99.90;;;;;;5054803;28;20172;-76
2022/11/16 08:48:02;;;;;;;11.67;2.57;;;10.30;99.90;;;;;;5053392;28;20658;-76
2022/11/16 08:50:27;;;;;;;11.80;2.57;;;10.30;99.90;;;;;;5053435;28;20226;-76
2022/11/16 08:52:55;;;;;;;6.00;2.50;;;10.30;99.90;;;;;;5054557;28;20666;-75
2022/11/16 08:55:20;;;;;;;9.73;2.47;;;10.40;99.90;;;;;;5054916;28;20701;-75
2022/11/16 08:57:46;;;;;;;8.17;2.60;;;10.40;99.90;;;;;;5054470;28;20255;-75
2022/11/16 09:00:12;;;;;;;4.93;2.30;;;10.40;99.90;;;;;;5054817;28;20251;-75
2022/11/16 09:02:37;;;;;;;5.47;2.27;;;10.40;99.90;;;;;;5053115;28;20202;-75
2022/11/16 09:05:04;;;;;;;6.37;2.53;;;10.40;99.90;;;;;;5054726;28;20203;-75
2022/11/16 09:07:29;;;;;;;14.13;2.80;;;10.40;99.90;;;;;;5053059;28;20180;-75
2022/11/16 09:09:55;;;;;;;4.67;2.60;;;10.40;99.90;;;;;;5054528;28;20179;-75
2022/11/16 09:12:20;;;;;;;4.93;2.50;;;10.30;99.90;;;;;;5054203;28;20206;-75
2022/11/16 09:14:46;;;;;;;10.17;2.93;;;10.30;99.90;;;;;;5054203;28;20217;-75
2022/11/16 09:17:12;;;;;;;6.80;2.40;;;10.30;99.90;;;;;;5052920;28;20206;-74
2022/11/16 09:19:37;;;;;;;5.33;2.63;;;10.30;99.90;;;;;;5052814;28;20199;-75
2022/11/16 09:22:03;;;;;;;12.47;2.63;;;10.30;99.90;;;;;;5054368;28;20646;-77
2022/11/16 09:24:30;;;;;;;4.20;2.13;;;10.40;99.90;;;;;;5054375;28;20172;-75
2022/11/16 09:26:57;;;;;;;7.70;2.00;;;10.30;99.90;;;;;;5052870;28;20187;-76
2022/11/16 09:29:22;;;;;;;9.57;2.30;;;10.40;99.90;;;;;;5054232;28;20620;-76
2022/11/16 09:31:48;;;;;;;7.57;2.53;;;10.40;99.90;;;;;;5053931;28;20203;-75
2022/11/16 09:34:14;;;;;;;4.60;1.33;;;10.30;99.90;;;;;;5053955;28;20198;-75
2022/11/16 09:36:39;;;;;;;11.37;2.10;;;10.40;99.90;;;;;;5052634;28;20598;-76
2022/11/16 09:39:05;;;;;;;6.27;1.77;;;10.40;99.90;;;;;;5052417;28;20204;-76
2022/11/16 09:41:48;;;;;;;6.50;2.10;;;10.40;99.90;;;;;;5053864;28;20179;-76
2022/11/16 09:44:40;;;;;;;6.13;1.67;;;10.40;99.90;;;;;;5053669;28;20156;-75
2022/11/16 09:47:15;;;;;;;7.23;1.83;;;10.40;99.90;;;;;;5053502;28;20152;-75
2022/11/16 09:49:47;;;;;;;8.23;2.17;;;10.50;99.90;;;;;;5053604;28;20163;-76
2022/11/16 09:52:25;;;;;;;7.63;1.90;;;10.60;99.90;;;;;;5052239;28;20602;-76
2022/11/16 09:54:53;;;;;;;9.40;2.10;;;10.60;99.90;;;;;;5052290;28;20258;-75
2022/11/16 09:57:26;;;;;;;11.13;2.37;;;10.60;99.90;;;;;;5053399;28;20198;-76
2022/11/16 09:59:57;;;;;;;6.53;2.00;;;10.70;99.90;;;;;;5053597;28;20188;-76
2022/11/16 10:02:31;;;;;;;5.20;1.70;;;10.70;99.90;;;;;;5053324;28;20183;-75
2022/11/16 10:05:19;;;;;;;7.83;1.40;;;10.80;99.90;;;;;;5053740;28;20214;-75
2022/11/16 10:07:51;;;;;;;8.10;1.70;;;10.90;99.90;;;;;;5053278;28;20218;-75
2022/11/16 10:10:26;;;;;;;11.83;1.77;;;11.00;99.90;;;;;;5051923;28;20172;-75
2022/11/16 10:13:14;;;;;;;6.23;1.57;;;11.00;99.90;;;;;;5053182;28;20236;-75
2022/11/16 10:16:05;;;;;;;4.93;1.50;;;11.10;99.90;;;;;;5052800;28;20650;-75
2022/11/16 10:18:57;;;;;;;11.80;2.17;;;11.10;99.90;;;;;;5043002;28;20210;-76
2022/11/16 10:21:40;;;;;;;8.17;2.03;;;11.10;99.90;;;;;;5049847;28;20191;-75
2022/11/16 10:24:42;;;;;;;7.37;1.90;;;11.20;99.90;;;;;;5051745;28;20213;-75
2022/11/16 10:27:27;;;;;;;7.47;1.60;;;11.20;99.90;;;;;;5053338;28;20645;-76
2022/11/16 10:30:09;;;;;;;6.43;1.70;;;11.20;99.90;;;;;;5051694;28;20179;-76
2022/11/16 10:32:46;;;;;;;9.80;2.03;;;11.10;99.90;;;;;;5051458;28;20211;-76
2022/11/16 10:35:11;;;;;;;4.93;2.20;;;11.20;99.90;;;;;;5053139;28;20156;-76
2022/11/16 10:37:43;;;;;;;6.67;1.20;;;11.20;99.90;;;;;;5052817;28;20171;-76
2022/11/16 10:40:35;;;;;;;3.43;1.30;;;11.20;99.90;;;;;;5051521;28;20203;-75
2022/11/16 10:43:10;;;;;;;7.63;1.33;;;11.20;99.90;;;;;;5049531;28;20709;-76
2022/11/16 10:45:59;;;;;;;7.27;1.47;;;11.30;99.90;;;;;;5053076;28;20266;-76
2022/11/16 10:48:46;;;;;;;5.37;1.20;;;11.30;99.90;;;;;;5052750;28;20159;-76
2022/11/16 10:51:11;;;;;;;3.07;1.10;;;11.30;99.90;;;;;;5053023;28;20163;-76
2022/11/16 10:53:40;;;;;;;4.43;1.20;;;11.40;99.90;;;;;;5052616;28;20205;-76
2022/11/16 10:56:23;;;;;;;5.57;1.40;;;11.50;99.90;;;;;;5052675;28;20179;-76
2022/11/16 10:58:52;;;;;;;10.07;1.73;;;11.50;99.90;;;;;;5053152;28;20191;-76
2022/11/16 11:01:43;;;;;;;3.93;1.40;;;11.60;99.90;;;;;;5056847;28;20587;-76
2022/11/16 11:04:22;;;;;;;9.70;1.50;;;11.60;99.90;;;;;;5057014;28;20567;-75
2022/11/16 11:06:52;;;;;;;5.37;1.47;;;11.70;99.90;;;;;;5056693;28;20162;-76
2022/11/16 11:09:26;;;;;;;6.60;1.70;;;11.70;99.90;;;;;;5055273;28;20184;-76
2022/11/16 11:15:01;;;;;;;4.77;1.17;;;11.80;99.90;;;;;;5057087;28;20733;-76
2022/11/16 11:17:29;;;;;;;4.07;1.50;;;11.80;99.90;;;;;;5056376;28;20229;-76
2022/11/16 11:19:57;;;;;;;4.93;1.60;;;11.80;99.90;;;;;;5056263;28;20201;-76
2022/11/16 11:22:23;;;;;;;9.73;1.70;;;11.90;99.90;;;;;;5056246;28;20183;-76
2022/11/16 11:24:49;;;;;;;6.53;1.87;;;11.90;99.90;;;;;;5056261;28;20229;-76
2022/11/16 11:27:22;;;;;;;6.13;1.43;;;11.90;99.90;;;;;;5056218;28;20719;-76
2022/11/16 11:29:52;;;;;;;11.57;2.00;;;12.00;99.90;;;;;;5054937;28;20199;-76
2022/11/16 11:32:19;;;;;;;5.00;1.40;;;12.00;99.90;;;;;;5171028;22;20292;-79
2022/11/16 11:34:47;;;;;;;2.43;1.47;;;12.00;99.90;;;;;;5080452;28;20673;-78
2022/11/16 11:37:21;;;;;;;4.93;1.00;;;12.00;99.90;;;;;;5079238;28;20653;-79
2022/11/16 11:39:46;;;;;;;3.80;1.53;;;12.10;99.90;;;;;;5079933;28;20673;-78
2022/11/16 11:42:12;;;;;;;6.60;1.53;;;12.20;99.90;;;;;;5078894;28;20351;-78
2022/11/16 11:44:49;;;;;;;5.30;1.37;;;12.20;99.90;;;;;;5079458;28;20280;-78
2022/11/16 11:47:23;;;;;;;5.70;1.90;;;12.30;99.90;;;;;;5079114;28;20541;-78
2022/11/16 11:49:56;;;;;;;7.33;1.47;;;12.30;99.90;;;;;;5080447;28;20154;-78
2022/11/16 11:52:47;;;;;;;8.90;1.53;;;12.30;99.90;;;;;;5078941;28;20198;-78
2022/11/16 11:55:16;;;;;;;4.97;1.47;;;12.30;99.90;;;;;;5078279;28;20560;-78
2022/11/16 11:57:43;;;;;;;6.67;2.43;;;12.40;99.90;;;;;;5080774;28;20228;-78
2022/11/16 12:00:13;;;;;;;5.57;1.80;;;12.40;99.90;;;;;;5080733;28;20191;-79
2022/11/16 12:03:08;;;;;;;3.07;1.20;;;12.40;99.90;;;;;;5080515;28;20187;-79
2022/11/16 12:05:59;;;;;;;5.43;1.40;;;12.40;99.90;;;;;;5079959;28;20158;-79
2022/11/16 12:09:11;;;;;;;6.23;1.40;;;12.50;99.90;;;;;;5080305;28;20167;-78
2022/11/16 12:12:09;;;;;;;11.83;1.50;;;12.40;99.90;;;;;;5014940;28;20222;-79
2022/11/16 12:15:04;;;;;;;6.93;1.83;;;12.50;99.90;;;;;;5064902;28;20214;-79
2022/11/16 12:17:45;;;;;;;5.57;1.53;;;12.50;99.90;;;;;;5080633;28;20170;-79
2022/11/16 12:20:40;;;;;;;5.73;1.53;;;12.50;99.90;;;;;;5079125;28;20194;-78
2022/11/16 12:23:08;;;;;;;4.23;1.53;;;12.50;99.90;;;;;;5080489;28;20199;-79
2022/11/16 12:26:12;;;;;;;6.17;1.30;;;12.50;99.90;;;;;;5080511;28;20181;-79
2022/11/16 12:28:57;;;;;;;3.17;1.10;;;12.60;99.90;;;;;;5069280;28;20236;-78
2022/11/16 12:31:57;;;;;;;7.47;1.40;;;12.60;99.90;;;;;;5080329;28;20227;-79
2022/11/16 12:34:25;;;;;;;7.00;1.50;;;12.60;99.90;;;;;;5080371;28;20189;-78
2022/11/16 12:37:19;;;;;;;3.50;1.23;;;12.70;99.90;;;;;;5080438;28;20174;-79
2022/11/16 12:40:03;;;;;;;3.13;1.20;;;12.70;99.90;;;;;;5080113;28;20677;-78
2022/11/16 12:42:58;;;;;;;6.03;1.37;;;12.70;99.90;;;;;;5080252;28;20190;-79
2022/11/16 12:45:48;;;;;;;6.70;1.13;;;12.80;99.90;;;;;;5079250;28;20163;-79
2022/11/16 12:48:26;;;;;;;7.23;1.67;;;12.80;99.90;;;;;;5080625;28;20158;-78
2022/11/16 12:51:00;;;;;;;3.50;1.13;;;12.80;99.90;;;;;;5080733;28;20226;-80
2022/11/16 12:53:32;;;;;;;4.63;1.00;;;12.90;99.90;;;;;;5077257;28;20194;-78
2022/11/16 12:56:05;;;;;;;3.47;1.37;;;12.90;99.90;;;;;;5076548;28;20610;-78
2022/11/16 12:59:03;;;;;;;4.10;1.47;;;13.00;99.90;;;;;;5079231;28;20199;-78
2022/11/16 13:02:05;;;;;;;5.83;1.30;;;13.00;99.90;;;;;;5079714;28;20194;-78
2022/11/16 13:04:39;;;;;;;7.47;1.30;;;13.00;99.90;;;;;;5031563;28;20770;-78
2022/11/16 13:07:05;;;;;;;3.87;1.10;;;12.90;99.90;;;;;;5075423;28;20269;-78
2022/11/16 13:09:42;;;;;;;3.97;1.10;;;12.80;99.90;;;;;;5075763;28;20274;-78
2022/11/16 13:12:15;;;;;;;4.60;1.43;;;12.80;99.90;;;;;;5076624;28;20195;-78
2022/11/16 13:14:44;;;;;;;4.50;1.20;;;12.70;99.90;;;;;;5076958;28;20166;-78
2022/11/16 13:17:19;;;;;;;5.70;1.60;;;12.70;99.90;;;;;;5076051;28;20181;-78
2022/11/16 13:19:51;;;;;;;4.53;1.40;;;12.60;99.90;;;;;;5076428;28;20218;-78
2022/11/16 13:22:23;;;;;;;4.57;1.10;;;12.50;99.90;;;;;;5075768;28;20201;-78
2022/11/16 13:25:13;;;;;;;5.93;1.40;;;12.60;99.90;;;;;;5076945;28;20159;-78
2022/11/16 13:28:03;;;;;;;4.17;1.40;;;12.60;99.90;;;;;;5074637;28;20253;-77
2022/11/16 13:30:44;;;;;;;7.40;1.67;;;12.60;99.90;;;;;;5074558;28;20166;-77
2022/11/16 13:33:31;;;;;;;7.20;1.47;;;12.70;99.90;;;;;;5074093;28;20305;-77
2022/11/16 13:35:56;;;;;;;4.87;1.07;;;12.70;99.90;;;;;;5074268;28;20183;-77
2022/11/16 13:38:50;;;;;;;4.63;1.50;;;12.70;99.90;;;;;;5073835;28;20260;-78
2022/11/16 13:41:36;;;;;;;5.43;1.37;;;12.70;99.90;;;;;;5072743;28;20163;-77
2022/11/16 13:44:04;;;;;;;6.27;1.27;;;12.70;99.90;;;;;;5072300;28;20252;-77
2022/11/16 13:46:47;;;;;;;6.47;1.00;;;12.60;99.90;;;;;;5073600;28;20171;-78
2022/11/16 13:49:39;;;;;;;4.07;1.20;;;12.60;99.90;;;;;;5073633;28;20158;-77
2022/11/16 13:52:08;;;;;;;5.77;1.33;;;12.50;99.90;;;;;;5073831;28;20167;-77